DAAS

Ain Arnat Airport

Sétif, Algeria
METAR DAAS 170200Z 32008KT 9999 FEW010 SCT026 02/M01 Q1021
Observed Flight Rules
Dec-17 @ 02:00 UTC (18 minutes ago) Visual Flight Rules
Wind Visibility Clouds
320° at 8 knots 10,000+ meters
  • Few at 1,000' AGL
  • Scattered at 2,600' AGL
Temperatures Readings
Current 2°C / 36°F
Dewpoint -1°C / 30°F
Humidity 81%
Altimeter 30.15" Hg
Pressure 1021 hPa
Elevation 1038
METAR DAAS 170200Z 32008KT 9999 FEW010 SCT026 02/M01 Q1021
Observed Flight Rules
Dec-17 @ 02:00 UTC
(18 minutes ago)
VFR
Wind Visibility
320° at 8 knots 10,000+ meters
Clouds
  • Few at 1,000' AGL
  • Scattered at 2,600' AGL
Temperature Dewpoint
2°C / 36°F -1°C / 30°F
Humidity Altimeter Pressure
81% 30.15" Hg 1021 hPa